メインページ
METAR-TAF:

METAR-TAF

空港 :

ダラス・フォートワース国際空港

ダラス / フォートワース, テキサス州, アメリカ合衆国

緯度: 32-53-49N, 経度: 097-01-19W, 海抜: 183m

現時点の気象観測

当レポートは30分前の03:53(UTC)に作成
南/南西の風 8kt
気温 10°C
湿度 57%
気圧 1020 hPa
視程: 16.1km
高度30000ftの千切れ雲あり

METAR: KDFW 160353Z 20008KT 10SM BKN300 10/02 A3012 RMK AO2 SLP200 T01000022

時間: 22:23 (04:23 UTC)

予報

当レポートは1時間31分前の02:52(UTC)に作成
予報は16日の 03時(UTC)から 17日の 06時(UTC)まで有効
南/南西の風 10kt
視程: 10km
高度25000ftの雲はほとんどない

TAF: KDFW 160252Z 1603/1706 20010KT P6SM FEW250

4,000以上の空港の気象観測と天気予報(METAR報とTAF報)

利用可能な観測所は地図上に黄色い丸と赤い丸で示す。

丸の上にカーソルを重ねると観測所名を参照できる。

次にクリックすると気象観測と天気予報を参照できる。

マップの切り替え:黒色「×」印の緑ボタンをクリックして拡大、「-」印の緑ボタンをクリックして縮小、緑色の三角印をクリックして隣りの地図に切り替え


METAR-TAF: